Ash Grove, Nebraska
Current Conditions -  °F | °C
As of 2:55 PM on Wednesday 26 Nov 2014 (Local Time) from KHDE Reporting Station
Scattered Clouds Scattered Clouds  
Wind Chill: 22°   Ceiling: Unl
Heat Index: 33°   Visibility: 10mi
Dew Point: 18°   Wind: 17mph
Humidity: 54%   Direction: 350°N
Pressure: 30.28"   Gusts: 22mph
Location:  40.1734°N, 98.8989°W
Report Text: KHDE 262055Z AUTO 35015G19KT 10SM SCT110 01/M08 A3028 RMK AO2 T00051079
Loading
Personal Weather Stations






























Interactive Weather Map New forecast layout! Learn more

10-Day Weather Forecast

Advertisements
Track Severe Weather on mobile